Time;durP1;ratioP1;P1;durP2;ratioP2;P2;SDS_P1;SDS_P2;PMS_P1;PMS_P2;Temp;Humidity;BMP_temperature;BMP_pressure;BME280_temperature;BME280_humidity;BME280_pressure;Samples;Min_cycle;Max_cycle;Signal;HPM_P1;HPM_P2
2021/04/06 00:01:35;;;;;;;4.07;1.20;;;;;;;18.77;55.30;101435.69;5056921;28;20051;-76
2021/04/06 00:04:05;;;;;;;1.65;0.85;;;;;;;18.74;55.00;101433.03;5055276;28;20059;-74
2021/04/06 00:06:32;;;;;;;2.88;1.25;;;;;;;18.72;55.04;101447.00;5038872;28;20108;-74
2021/04/06 00:08:59;;;;;;;3.30;1.65;;;;;;;18.74;55.05;101443.53;5054045;28;20021;-75
2021/04/06 00:11:26;;;;;;;3.13;1.42;;;;;;;18.75;54.39;101444.41;5056502;28;20051;-74
2021/04/06 00:13:54;;;;;;;3.95;1.48;;;;;;;18.72;55.03;101447.88;5036130;28;20048;-72
2021/04/06 00:16:21;;;;;;;2.75;1.00;;;;;;;18.75;54.49;101445.28;5049719;28;20033;-72
2021/04/06 00:18:50;;;;;;;1.98;1.38;;;;;;;18.71;54.74;101440.88;5050237;28;20044;-73
2021/04/06 00:21:17;;;;;;;2.25;1.08;;;;;;;18.65;54.53;101432.16;5050406;28;20106;-73
2021/04/06 00:23:45;;;;;;;2.88;1.52;;;;;;;18.74;54.21;101445.28;5072203;28;20382;-73
2021/04/06 00:26:11;;;;;;;4.03;1.40;;;;;;;18.71;54.18;101440.00;5047159;28;20111;-73
2021/04/06 00:28:37;;;;;;;2.97;1.35;;;;;;;18.71;54.40;101447.88;5026054;28;20063;-73
2021/04/06 00:31:05;;;;;;;4.18;1.58;;;;;;;18.71;54.10;101453.13;5050329;28;20448;-75
2021/04/06 00:33:35;;;;;;;2.83;1.58;;;;;;;18.69;54.00;101467.97;5043317;28;20032;-73
2021/04/06 00:36:02;;;;;;;3.85;1.30;;;;;;;18.69;53.93;101450.50;5047096;28;20070;-75
2021/04/06 00:38:40;;;;;;;3.58;1.15;;;;;;;18.67;54.09;101462.72;5035976;28;20037;-73
2021/04/06 00:41:11;;;;;;;2.85;1.10;;;;;;;18.67;53.93;101456.63;5044705;28;20039;-75
2021/04/06 00:43:39;;;;;;;4.82;1.27;;;;;;;18.65;53.83;101448.75;5029406;28;20595;-74
2021/04/06 00:46:09;;;;;;;2.90;1.25;;;;;;;18.70;53.78;101465.34;5040727;28;20021;-75
2021/04/06 00:48:41;;;;;;;3.17;1.00;;;;;;;18.70;53.65;101474.94;5039443;28;20023;-75
2021/04/06 00:51:20;;;;;;;2.90;1.10;;;;;;;18.69;53.61;101468.84;5038455;28;20380;-76
2021/04/06 00:53:54;;;;;;;3.40;1.10;;;;;;;18.67;53.56;101467.97;5024444;28;20478;-73
2021/04/06 00:56:31;;;;;;;2.92;1.15;;;;;;;18.69;53.58;101465.34;5040600;28;20468;-76
2021/04/06 00:59:08;;;;;;;4.78;1.98;;;;;;;18.68;53.54;101463.59;5005511;28;20483;-75
2021/04/06 01:01:41;;;;;;;2.75;1.27;;;;;;;18.68;53.34;101458.38;5036477;28;20045;-75
2021/04/06 01:04:14;;;;;;;2.53;0.98;;;;;;;18.68;53.45;101463.59;5043611;28;20025;-73
2021/04/06 01:07:09;;;;;;;3.55;1.83;;;;;;;18.67;53.43;101467.09;5037139;28;20025;-75
2021/04/06 01:09:50;;;;;;;2.97;1.20;;;;;;;18.63;53.37;101467.94;5067383;28;20033;-72
2021/04/06 01:12:18;;;;;;;2.67;1.23;;;;;;;18.65;53.57;101467.09;5051020;28;20024;-75
2021/04/06 01:14:45;;;;;;;2.53;1.27;;;;;;;18.66;53.47;101479.31;5054371;28;20071;-75
2021/04/06 01:17:14;;;;;;;2.70;1.27;;;;;;;18.66;53.39;101467.97;5064321;28;20443;-74
2021/04/06 01:19:40;;;;;;;2.78;1.10;;;;;;;18.57;53.12;101443.41;5049408;28;20028;-74
2021/04/06 01:22:08;;;;;;;3.13;1.50;;;;;;;18.61;53.38;101451.34;5035475;28;20099;-74
2021/04/06 01:24:34;;;;;;;2.17;1.08;;;;;;;18.61;53.31;101459.19;5053510;28;20025;-74
2021/04/06 01:27:01;;;;;;;4.20;1.50;;;;;;;18.59;53.17;101455.69;5019806;28;20056;-76
2021/04/06 01:29:27;;;;;;;2.90;1.10;;;;;;;18.60;53.20;101457.44;5057717;28;20099;-78
2021/04/06 01:31:53;;;;;;;2.80;1.40;;;;;;;18.61;53.12;101462.69;5038646;28;20063;-75
2021/04/06 01:34:19;;;;;;;3.13;1.40;;;;;;;18.57;53.28;101453.91;5041098;28;20041;-75
2021/04/06 01:36:46;;;;;;;2.33;1.25;;;;;;;18.60;53.14;101460.94;5073103;28;20360;-76
2021/04/06 01:39:16;;;;;;;3.75;1.15;;;;;;;18.57;53.08;101448.66;5040956;28;20040;-75
2021/04/06 01:41:50;;;;;;;3.22;2.28;;;;;;;18.59;52.85;101451.31;5022650;28;20107;-75
2021/04/06 01:44:16;;;;;;;2.05;1.10;;;;;;;18.56;53.07;101446.06;5050211;28;20491;-75
2021/04/06 01:46:46;;;;;;;1.35;0.70;;;;;;;18.59;53.14;101446.09;5034320;28;20039;-75
2021/04/06 01:49:14;;;;;;;3.88;1.10;;;;;;;18.60;52.97;101447.84;5038907;28;20025;-76
2021/04/06 01:51:40;;;;;;;3.35;1.40;;;;;;;18.57;52.71;101440.81;5037315;28;20060;-76
2021/04/06 01:54:08;;;;;;;2.58;1.27;;;;;;;18.57;52.96;101434.69;5054234;28;20374;-77
2021/04/06 01:56:42;;;;;;;2.45;1.02;;;;;;;18.52;52.74;101439.94;5058413;28;20036;-75
2021/04/06 01:59:11;;;;;;;2.33;1.10;;;;;;;18.56;52.99;101464.41;5057394;28;20505;-75
2021/04/06 02:01:40;;;;;;;2.83;1.33;;;;;;;18.55;52.55;101447.81;5058884;28;20045;-77
2021/04/06 02:04:07;;;;;;;1.98;1.13;;;;;;;18.56;52.66;101454.75;5041596;28;20029;-76
2021/04/06 02:06:36;;;;;;;2.35;0.80;;;;;;;18.54;53.10;101453.03;5066179;28;20036;-77
2021/04/06 02:09:09;;;;;;;2.30;1.33;;;;;;;18.49;52.59;101466.09;5057195;28;20082;-76
2021/04/06 02:11:37;;;;;;;2.42;1.13;;;;;;;18.51;52.38;101456.50;5039915;28;20079;-76
2021/04/06 02:14:14;;;;;;;2.67;1.15;;;;;;;18.52;52.68;101454.75;5054990;28;20029;-75
2021/04/06 02:17:01;;;;;;;3.88;1.10;;;;;;;18.51;52.69;101440.78;5057061;28;20067;-76
2021/04/06 02:19:29;;;;;;;1.65;1.15;;;;;;;18.52;52.56;101433.81;5026363;28;20025;-75
2021/04/06 02:22:01;;;;;;;2.20;0.77;;;;;;;18.49;52.57;101429.44;5061625;28;20036;-75
2021/04/06 02:24:32;;;;;;;3.35;1.35;;;;;;;18.51;52.68;101432.94;5062644;28;20082;-73
2021/04/06 02:27:17;;;;;;;1.55;0.80;;;;;;;18.49;52.70;101426.81;5048686;28;20088;-74
2021/04/06 02:29:53;;;;;;;3.60;1.50;;;;;;;18.50;52.73;101433.81;5055513;28;20028;-73
2021/04/06 02:32:25;;;;;;;2.83;1.00;;;;;;;18.50;52.65;101436.41;5050367;28;20018;-74
2021/04/06 02:34:52;;;;;;;2.28;1.02;;;;;;;18.43;52.56;101433.78;5067265;28;20025;-73
2021/04/06 02:37:19;;;;;;;1.90;0.77;;;;;;;18.49;52.51;101446.88;5029455;28;20033;-74
2021/04/06 02:39:45;;;;;;;2.30;0.88;;;;;;;18.48;52.55;101440.78;5051620;28;20040;-73
2021/04/06 02:42:34;;;;;;;1.55;0.90;;;;;;;18.46;52.48;101444.25;5033242;28;20025;-73
2021/04/06 02:45:15;;;;;;;2.22;1.02;;;;;;;18.48;52.48;101437.28;5054693;28;20033;-74
2021/04/06 02:48:14;;;;;;;1.23;0.93;;;;;;;18.46;52.54;101442.50;5051442;28;20382;-74
2021/04/06 02:50:42;;;;;;;2.30;0.85;;;;;;;18.40;52.27;101449.47;5000254;28;20045;-72
2021/04/06 02:53:09;;;;;;;3.00;0.90;;;;;;;18.42;52.31;101442.50;5054855;28;20059;-73
2021/04/06 02:55:35;;;;;;;5.78;1.50;;;;;;;18.33;52.42;101422.34;5017256;28;20032;-73
2021/04/06 02:58:11;;;;;;;2.92;1.15;;;;;;;18.46;52.38;101462.56;5049064;28;20037;-76
2021/04/06 03:00:36;;;;;;;1.92;0.70;;;;;;;18.45;52.34;101477.41;5038301;28;20479;-75
2021/04/06 03:03:04;;;;;;;1.67;0.77;;;;;;;18.45;52.46;101455.59;5058613;28;20051;-74
2021/04/06 03:05:33;;;;;;;5.18;1.20;;;;;;;18.44;52.20;101456.44;5047522;28;20032;-75
2021/04/06 03:08:00;;;;;;;2.15;0.80;;;;;;;18.43;52.24;101449.50;5059841;28;20108;-75
2021/04/06 03:10:27;;;;;;;2.40;1.20;;;;;;;18.43;52.43;101436.41;5025240;28;20036;-77
2021/04/06 03:12:53;;;;;;;4.45;1.10;;;;;;;18.43;52.29;101439.03;5057655;28;20116;-72
2021/04/06 03:15:24;;;;;;;1.92;1.05;;;;;;;18.42;52.18;101429.41;5042201;28;20139;-75
2021/04/06 03:17:52;;;;;;;2.97;1.10;;;;;;;18.36;52.29;101413.66;5038480;28;20032;-73
2021/04/06 03:20:19;;;;;;;1.25;0.75;;;;;;;18.37;52.32;101420.63;5040715;28;20036;-75
2021/04/06 03:22:46;;;;;;;2.50;0.75;;;;;;;18.39;52.31;101426.75;5038107;28;20029;-75
2021/04/06 03:25:13;;;;;;;2.92;0.90;;;;;;;18.36;52.06;101416.28;5043024;28;20037;-75
2021/04/06 03:27:47;;;;;;;1.20;0.65;;;;;;;18.37;52.12;101415.41;5015641;28;21565;-75
2021/04/06 03:30:14;;;;;;;2.35;0.95;;;;;;;18.38;52.19;101414.53;5058384;28;20033;-75
2021/04/06 03:32:40;;;;;;;3.47;0.70;;;;;;;18.36;52.15;101427.63;5040034;28;20012;-76
2021/04/06 03:35:07;;;;;;;1.80;0.85;;;;;;;18.37;52.38;101441.59;5034737;28;20020;-76
2021/04/06 03:37:35;;;;;;;2.60;1.10;;;;;;;18.39;52.17;101459.06;5061971;28;20021;-73
2021/04/06 03:40:01;;;;;;;2.45;1.00;;;;;;;18.38;51.91;101451.19;5037058;28;20029;-74
2021/04/06 03:42:27;;;;;;;4.05;1.25;;;;;;;18.36;52.22;101439.84;5053955;28;20029;-74
2021/04/06 03:45:19;;;;;;;1.38;0.80;;;;;;;18.35;52.19;101430.22;5058206;28;20490;-74
2021/04/06 03:47:59;;;;;;;2.75;1.60;;;;;;;18.35;52.04;101425.88;5032079;28;20045;-73
2021/04/06 03:50:40;;;;;;;2.15;1.40;;;;;;;18.32;51.84;101423.22;5047974;28;20493;-73
2021/04/06 03:53:11;;;;;;;2.45;0.82;;;;;;;18.32;52.16;101419.72;5025670;28;20040;-73
2021/04/06 03:55:38;;;;;;;2.15;1.33;;;;;;;18.33;52.19;101429.34;5030207;28;20022;-74
2021/04/06 03:58:22;;;;;;;3.40;1.75;;;;;;;18.34;52.16;101431.09;5024582;28;20036;-72
2021/04/06 04:00:47;;;;;;;1.13;0.70;;;;;;;18.29;51.98;101419.75;5051599;28;20041;-73
2021/04/06 04:03:15;;;;;;;1.63;1.00;;;;;;;18.30;52.19;101426.72;5023743;28;20407;-73
2021/04/06 04:05:42;;;;;;;2.05;0.90;;;;;;;18.34;52.04;101449.41;5031050;28;20025;-73
2021/04/06 04:08:07;;;;;;;2.88;1.02;;;;;;;18.27;52.02;101442.41;5049765;28;20025;-73
2021/04/06 04:10:32;;;;;;;2.08;0.93;;;;;;;18.26;51.98;101441.53;5036830;28;20051;-73
2021/04/06 04:12:58;;;;;;;3.47;0.85;;;;;;;18.29;51.86;101453.78;5041128;28;20509;-73
2021/04/06 04:15:23;;;;;;;2.83;1.17;;;;;;;18.30;52.05;101452.91;5024265;28;20060;-72
2021/04/06 04:17:50;;;;;;;3.88;1.83;;;;;;;18.27;52.07;101434.56;5021380;28;20490;-73
2021/04/06 04:20:18;;;;;;;1.63;0.90;;;;;;;18.28;51.98;101433.69;5038166;28;20029;-74
2021/04/06 04:22:44;;;;;;;2.20;0.82;;;;;;;18.21;51.81;101428.41;5035285;28;20028;-73
2021/04/06 04:25:12;;;;;;;2.17;0.85;;;;;;;18.27;51.94;101427.59;5045385;28;20040;-73
2021/04/06 04:27:38;;;;;;;1.63;0.82;;;;;;;18.24;51.86;101431.91;5049803;28;20471;-73
2021/04/06 04:30:05;;;;;;;1.52;0.65;;;;;;;18.23;51.75;101419.69;5036115;28;20041;-74
2021/04/06 04:32:30;;;;;;;2.35;1.25;;;;;;;18.23;51.57;101412.72;5056341;28;20104;-75
2021/04/06 04:34:55;;;;;;;2.17;0.80;;;;;;;18.24;51.80;101409.22;5032267;28;20108;-75
2021/04/06 04:37:21;;;;;;;1.17;0.70;;;;;;;18.25;51.83;101411.00;5036135;28;20033;-74
2021/04/06 04:39:46;;;;;;;1.95;1.10;;;;;;;18.27;52.54;101413.63;5038004;28;20037;-72
2021/04/06 04:42:12;;;;;;;3.00;0.77;;;;;;;18.26;52.24;101423.22;5044086;28;20067;-76
2021/04/06 04:44:37;;;;;;;1.33;0.60;;;;;;;18.21;52.41;101409.22;5038335;28;20037;-73
2021/04/06 04:47:02;;;;;;;1.08;0.80;;;;;;;18.33;52.19;101431.97;5031321;28;20478;-73
2021/04/06 04:49:28;;;;;;;2.13;0.93;;;;;;;18.46;51.76;101437.25;5022749;28;20040;-81
2021/04/06 04:51:53;;;;;;;1.77;1.15;;;;;;;18.45;51.68;101440.75;5045184;28;20520;-75
2021/04/06 04:54:18;;;;;;;2.00;0.80;;;;;;;18.45;51.74;101430.28;5021277;28;20044;-73
2021/04/06 04:56:44;;;;;;;1.45;0.75;;;;;;;18.49;51.93;101424.19;5053397;28;20025;-73
2021/04/06 04:59:09;;;;;;;1.42;0.80;;;;;;;18.54;51.81;101419.84;5032292;28;20086;-75
2021/04/06 05:01:36;;;;;;;1.83;0.70;;;;;;;18.57;52.19;101413.72;4999748;28;20049;-77
2021/04/06 05:04:01;;;;;;;1.90;0.82;;;;;;;18.58;52.41;101412.91;5037419;28;20445;-75
2021/04/06 05:06:27;;;;;;;1.33;0.88;;;;;;;18.60;52.18;101398.06;5046286;28;20105;-74
2021/04/06 05:08:52;;;;;;;1.67;0.90;;;;;;;18.58;52.07;101391.94;5032695;28;20030;-74
2021/04/06 05:11:18;;;;;;;1.63;0.60;;;;;;;18.65;52.03;101392.84;5046010;28;20108;-74
2021/04/06 05:13:43;;;;;;;2.25;0.55;;;;;;;18.71;52.02;101393.72;4990081;28;20399;-74
2021/04/06 05:16:08;;;;;;;1.65;0.95;;;;;;;18.71;51.86;101382.38;5034100;28;20108;-73
2021/04/06 05:18:34;;;;;;;1.25;0.68;;;;;;;18.73;51.98;101378.03;5023377;28;20471;-73
2021/04/06 05:20:59;;;;;;;5.18;1.38;;;;;;;18.69;52.26;101384.16;4997687;28;22349;-73
2021/04/06 05:23:24;;;;;;;2.03;1.00;;;;;;;18.75;52.15;101387.63;5001458;28;20030;-79
2021/04/06 05:25:50;;;;;;;2.78;1.35;;;;;;;18.71;52.05;101372.78;5012296;28;20090;-74
2021/04/06 05:28:15;;;;;;;2.50;0.90;;;;;;;18.78;52.75;101392.03;5005907;28;20036;-73
2021/04/06 05:30:40;;;;;;;1.80;0.98;;;;;;;18.75;52.46;101384.16;5033582;28;20387;-74
2021/04/06 05:33:07;;;;;;;3.80;1.20;;;;;;;18.84;52.07;101399.88;5000964;28;20120;-74
2021/04/06 05:35:32;;;;;;;3.50;1.35;;;;;;;18.84;52.82;101392.03;5032266;28;20032;-74
2021/04/06 05:37:58;;;;;;;3.53;1.10;;;;;;;18.80;52.63;101400.75;5024829;28;20033;-75
2021/04/06 05:40:25;;;;;;;2.05;1.08;;;;;;;18.82;52.63;101391.16;5014861;28;20483;-75
2021/04/06 05:42:51;;;;;;;1.40;0.73;;;;;;;18.86;52.71;101388.53;5024722;28;20487;-74
2021/04/06 05:45:19;;;;;;;2.22;0.88;;;;;;;18.80;52.79;101380.69;5046295;28;20040;-75
2021/04/06 05:47:47;;;;;;;2.67;1.15;;;;;;;18.82;52.85;101391.16;5025765;28;20071;-75
2021/04/06 05:50:13;;;;;;;2.15;1.10;;;;;;;18.79;52.66;101384.16;5016481;28;20056;-74
2021/04/06 05:52:39;;;;;;;2.78;1.10;;;;;;;18.90;52.75;101394.66;5033744;28;20051;-74
2021/04/06 05:55:06;;;;;;;3.50;1.17;;;;;;;18.82;52.76;101396.41;5045708;28;20406;-75
2021/04/06 05:57:32;;;;;;;2.65;1.23;;;;;;;18.89;52.83;101412.13;5022576;28;20056;-74
2021/04/06 05:59:57;;;;;;;1.58;1.10;;;;;;;18.94;52.55;101413.91;5034108;28;20026;-74
2021/04/06 06:02:23;;;;;;;4.03;1.80;;;;;;;18.89;52.57;101413.88;5015783;28;20073;-74
2021/04/06 06:04:49;;;;;;;3.55;1.50;;;;;;;18.77;52.91;101427.81;5016103;28;20500;-75
2021/04/06 06:07:15;;;;;;;3.50;1.42;;;;;;;18.92;52.61;101446.22;5035820;28;20028;-73
2021/04/06 06:09:42;;;;;;;2.35;1.10;;;;;;;18.91;52.63;101433.09;5027794;28;20025;-74
2021/04/06 06:12:10;;;;;;;2.05;1.10;;;;;;;18.94;52.79;101435.75;5015775;28;20026;-74
2021/04/06 06:14:53;;;;;;;2.85;1.05;;;;;;;18.92;52.90;101422.63;5035235;28;20036;-73
2021/04/06 06:17:19;;;;;;;3.70;1.38;;;;;;;18.97;52.73;101414.75;5033677;28;20079;-75
2021/04/06 06:19:53;;;;;;;3.15;1.13;;;;;;;18.98;52.77;101413.88;5032617;28;20057;-74
2021/04/06 06:22:22;;;;;;;5.32;1.48;;;;;;;18.95;52.70;101420.91;5052606;28;20044;-73
2021/04/06 06:25:11;;;;;;;4.43;1.60;;;;;;;18.99;52.60;101426.13;5004579;28;20058;-73
2021/04/06 06:30:29;;;;;;;2.30;0.90;;;;;;;19.00;52.66;101424.38;5038542;28;20048;-73
2021/04/06 06:33:13;;;;;;;3.70;1.25;;;;;;;19.00;52.77;101417.41;5046431;28;20052;-73
2021/04/06 06:35:39;;;;;;;1.73;0.98;;;;;;;19.07;52.45;101416.56;5014589;28;20119;-74
2021/04/06 06:38:34;;;;;;;3.78;1.33;;;;;;;19.12;52.01;101417.41;5023125;28;20546;-74
2021/04/06 06:41:19;;;;;;;2.15;1.33;;;;;;;19.13;51.96;101419.16;5010367;28;20041;-73
2021/04/06 06:43:46;;;;;;;1.38;1.13;;;;;;;19.21;52.48;101424.44;5040307;28;20025;-74
2021/04/06 06:46:20;;;;;;;1.63;1.05;;;;;;;19.19;52.14;101426.19;5020327;28;20028;-74
2021/04/06 06:48:56;;;;;;;3.15;1.17;;;;;;;19.20;52.12;101425.31;5040674;28;20034;-74
2021/04/06 06:51:32;;;;;;;2.00;0.80;;;;;;;19.18;52.67;101411.31;5040897;28;20029;-73
2021/04/06 06:53:59;;;;;;;2.60;0.90;;;;;;;19.11;52.48;101409.53;5055854;28;20064;-73
2021/04/06 06:56:37;;;;;;;2.13;1.42;;;;;;;19.10;52.59;101413.91;5037096;28;20026;-73
2021/04/06 06:59:04;;;;;;;1.42;0.85;;;;;;;19.13;52.21;101408.69;5041290;28;20021;-75
2021/04/06 07:01:31;;;;;;;1.10;0.60;;;;;;;19.12;52.55;101399.06;5034609;28;20080;-74
2021/04/06 07:04:03;;;;;;;1.67;1.00;;;;;;;19.14;52.35;101404.31;5060864;28;20041;-74
2021/04/06 07:06:29;;;;;;;1.98;0.93;;;;;;;19.16;52.30;101397.31;5054432;28;20029;-72
2021/04/06 07:08:55;;;;;;;2.20;0.85;;;;;;;19.17;52.46;101391.22;5046449;28;20036;-73
2021/04/06 07:11:21;;;;;;;1.48;0.90;;;;;;;19.17;52.65;101393.84;5037359;28;20013;-72
2021/04/06 07:13:50;;;;;;;1.90;1.27;;;;;;;19.11;52.61;101391.19;5023289;28;20056;-73
2021/04/06 07:16:17;;;;;;;2.45;0.82;;;;;;;19.20;52.25;101399.09;5052557;28;20075;-72
2021/04/06 07:18:43;;;;;;;2.42;1.08;;;;;;;19.25;52.25;101386.84;5055726;28;20036;-72
2021/04/06 07:21:11;;;;;;;1.15;0.73;;;;;;;19.33;52.16;101386.88;5056417;28;20071;-73
2021/04/06 07:23:59;;;;;;;2.10;0.65;;;;;;;19.41;51.82;101392.97;5038165;28;20024;-71
2021/04/06 07:26:25;;;;;;;1.75;0.93;;;;;;;19.37;51.91;101383.34;5051065;28;20021;-72
2021/04/06 07:28:51;;;;;;;1.60;0.70;;;;;;;19.31;52.02;101384.22;5044357;28;20033;-72
2021/04/06 07:31:17;;;;;;;2.35;1.15;;;;;;;19.30;52.23;101395.59;5056385;28;20402;-72
2021/04/06 07:33:45;;;;;;;1.40;0.60;;;;;;;19.37;51.91;101388.59;5033431;28;20026;-72
2021/04/06 07:36:14;;;;;;;2.17;0.88;;;;;;;19.42;51.75;101382.47;5034187;28;20090;-72
2021/04/06 07:38:44;;;;;;;1.27;0.60;;;;;;;19.40;51.91;101384.22;5055809;28;20482;-72
2021/04/06 07:41:12;;;;;;;2.30;0.75;;;;;;;19.51;51.77;101389.50;5041590;28;20021;-73
2021/04/06 07:43:38;;;;;;;2.50;0.82;;;;;;;19.58;51.42;101383.38;5054820;28;20482;-72
2021/04/06 07:46:04;;;;;;;1.00;0.70;;;;;;;19.49;51.35;101381.63;5044150;28;20033;-72
2021/04/06 07:48:50;;;;;;;1.58;0.60;;;;;;;19.62;51.39;101388.59;5038865;28;20090;-72
2021/04/06 07:51:17;;;;;;;1.88;1.00;;;;;;;19.70;51.01;101387.75;5039256;28;20082;-72
2021/04/06 07:53:55;;;;;;;1.35;0.93;;;;;;;19.67;51.04;101393.88;5056014;28;20037;-73
2021/04/06 07:56:42;;;;;;;2.30;0.90;;;;;;;19.73;51.17;101395.63;5038175;28;20028;-71
2021/04/06 07:59:08;;;;;;;1.20;0.60;;;;;;;19.80;51.01;101397.34;5051178;28;20545;-72
2021/04/06 08:01:34;;;;;;;2.80;0.80;;;;;;;19.75;50.94;101388.59;5042428;28;20028;-72
2021/04/06 08:04:01;;;;;;;1.45;0.60;;;;;;;19.73;51.02;101390.38;5036926;28;20045;-72
2021/04/06 08:06:28;;;;;;;2.05;0.98;;;;;;;19.77;51.04;101389.47;5048448;28;20041;-73
2021/04/06 08:08:54;;;;;;;1.50;0.70;;;;;;;19.86;50.74;101397.34;5034293;28;20086;-72
2021/04/06 08:11:20;;;;;;;1.52;0.98;;;;;;;19.70;50.88;101395.63;5035223;28;20028;-74
2021/04/06 08:13:46;;;;;;;2.35;0.73;;;;;;;19.67;51.22;101406.97;5034232;28;20032;-74
2021/04/06 08:16:16;;;;;;;1.63;0.60;;;;;;;19.67;51.27;101400.84;5018488;28;20509;-72
2021/04/06 08:18:49;;;;;;;2.05;0.82;;;;;;;19.64;51.21;101396.47;5036177;28;20040;-73
2021/04/06 08:21:14;;;;;;;2.00;0.70;;;;;;;19.65;51.29;101399.97;5038433;28;20051;-75
2021/04/06 08:23:42;;;;;;;2.33;0.65;;;;;;;19.76;51.08;101400.84;5046583;28;20087;-74
2021/04/06 08:26:25;;;;;;;1.30;0.80;;;;;;;19.71;50.72;101390.38;5037056;28;20036;-73
2021/04/06 08:28:51;;;;;;;2.67;0.88;;;;;;;19.80;50.87;101418.34;5030333;28;20032;-72
2021/04/06 08:31:26;;;;;;;1.10;0.60;;;;;;;19.78;50.75;101399.97;5050427;28;20033;-74
2021/04/06 08:33:52;;;;;;;1.52;0.90;;;;;;;19.81;50.75;101407.84;5035810;28;20064;-72
2021/04/06 08:36:23;;;;;;;1.35;0.63;;;;;;;19.76;50.65;101400.84;5049696;28;20436;-75
2021/04/06 08:38:49;;;;;;;2.55;1.17;;;;;;;19.75;51.28;101420.97;5043137;28;20028;-73
2021/04/06 08:41:31;;;;;;;0.75;0.50;;;;;;;19.74;51.22;101413.09;5050109;28;20025;-73
2021/04/06 08:44:04;;;;;;;1.67;0.80;;;;;;;19.68;50.96;101406.09;5051056;28;20021;-73
2021/04/06 08:46:35;;;;;;;0.88;0.60;;;;;;;19.69;51.26;101406.97;5037258;28;20476;-73
2021/04/06 08:49:01;;;;;;;0.85;0.82;;;;;;;19.66;51.36;101402.59;5054571;28;20051;-72
2021/04/06 08:51:42;;;;;;;1.85;0.80;;;;;;;19.59;51.33;101408.75;5052976;28;20107;-72
2021/04/06 08:54:09;;;;;;;1.23;0.68;;;;;;;19.54;51.75;101416.59;5042565;28;20561;-72
2021/04/06 08:56:45;;;;;;;1.85;0.60;;;;;;;19.48;51.81;101419.19;5030933;28;20025;-73
2021/04/06 08:59:16;;;;;;;2.08;0.93;;;;;;;19.43;52.53;101417.44;5034776;28;20412;-72
2021/04/06 09:01:44;;;;;;;1.17;0.68;;;;;;;19.37;52.07;101412.19;5054158;28;20470;-72
2021/04/06 09:04:20;;;;;;;1.50;0.68;;;;;;;19.36;52.23;101415.69;5027087;28;20040;-72
2021/04/06 09:06:45;;;;;;;2.10;0.85;;;;;;;19.36;52.15;101418.31;5032935;28;20031;-74
2021/04/06 09:09:13;;;;;;;2.15;0.70;;;;;;;19.32;52.41;101419.19;5019581;28;20383;-73
2021/04/06 09:11:40;;;;;;;0.93;0.55;;;;;;;19.28;52.21;101413.94;5017250;28;20068;-72
2021/04/06 09:14:06;;;;;;;1.17;0.63;;;;;;;19.32;52.05;101416.56;5022480;28;20021;-72
2021/04/06 09:16:34;;;;;;;1.65;0.70;;;;;;;19.23;52.18;101391.19;5049540;28;20032;-72
2021/04/06 09:19:26;;;;;;;2.03;0.70;;;;;;;19.26;52.23;101404.31;5039170;28;20025;-72
2021/04/06 09:22:02;;;;;;;1.95;0.88;;;;;;;19.32;51.96;101393.84;5025139;28;20065;-72
2021/04/06 09:24:28;;;;;;;0.88;0.70;;;;;;;19.35;52.04;101393.81;5034249;28;20029;-73
2021/04/06 09:26:56;;;;;;;0.40;0.40;;;;;;;19.34;51.31;101417.47;5006219;28;20044;-73
2021/04/06 09:29:39;;;;;;;1.08;0.50;;;;;;;19.25;51.67;101419.19;5024515;28;20053;-73
2021/04/06 09:32:10;;;;;;;0.82;0.55;;;;;;;19.24;51.87;101435.78;5014559;28;20388;-73
2021/04/06 09:34:45;;;;;;;1.05;0.75;;;;;;;19.23;51.82;101422.66;5035787;28;20030;-72
2021/04/06 09:37:13;;;;;;;2.45;1.38;;;;;;;19.24;51.95;101437.53;5018226;28;20099;-75
2021/04/06 09:39:42;;;;;;;1.95;0.70;;;;;;;19.23;51.91;101431.41;5033232;28;20376;-73
2021/04/06 09:42:09;;;;;;;0.70;0.50;;;;;;;19.19;52.02;101413.94;5046111;28;20018;-73
2021/04/06 09:44:38;;;;;;;1.50;1.00;;;;;;;19.13;51.97;101408.69;5020335;28;20048;-72
2021/04/06 09:47:15;;;;;;;2.00;0.93;;;;;;;19.14;52.03;101413.06;5031557;28;20029;-74
2021/04/06 09:49:46;;;;;;;1.65;0.57;;;;;;;19.11;51.97;101404.31;5050940;28;20074;-74
2021/04/06 09:52:14;;;;;;;1.83;0.70;;;;;;;19.13;51.85;101407.81;5043039;28;20036;-71
2021/04/06 09:54:52;;;;;;;0.95;0.50;;;;;;;19.05;51.73;101380.72;5037421;28;20497;-73
2021/04/06 09:57:18;;;;;;;1.67;0.88;;;;;;;19.10;51.93;101400.81;5032950;28;20060;-73
2021/04/06 09:59:56;;;;;;;1.23;0.60;;;;;;;19.09;51.86;101392.94;5017667;28;20021;-73
2021/04/06 10:02:25;;;;;;;1.88;0.52;;;;;;;19.07;51.81;101384.22;5037184;28;20103;-72
2021/04/06 10:04:51;;;;;;;0.65;0.40;;;;;;;19.11;51.91;101365.84;5036207;28;20029;-75
2021/04/06 10:07:21;;;;;;;1.50;0.63;;;;;;;19.19;51.26;101360.63;5004874;28;20033;-74
2021/04/06 10:09:50;;;;;;;1.90;0.80;;;;;;;19.19;51.61;101363.25;5063882;28;20536;-74
2021/04/06 10:12:17;;;;;;;0.85;0.60;;;;;;;19.16;51.52;101356.25;5051658;28;20044;-74
2021/04/06 10:14:43;;;;;;;1.35;0.57;;;;;;;19.17;51.73;101368.50;5034755;28;20093;-71
2021/04/06 10:17:12;;;;;;;1.13;0.70;;;;;;;19.14;51.64;101362.38;5038327;28;20032;-72
2021/04/06 10:19:40;;;;;;;1.48;0.73;;;;;;;19.05;51.64;101350.13;5032114;28;20029;-71
2021/04/06 10:22:15;;;;;;;1.23;0.60;;;;;;;19.08;51.83;101371.13;5025529;28;20039;-71
2021/04/06 10:24:44;;;;;;;1.02;0.60;;;;;;;19.05;51.76;101375.47;5030332;28;20538;-72
2021/04/06 10:27:17;;;;;;;1.23;0.70;;;;;;;19.05;51.87;101388.59;5040976;28;20033;-72
2021/04/06 10:29:44;;;;;;;2.88;0.95;;;;;;;19.03;51.54;101395.56;5035108;28;20020;-72
2021/04/06 10:32:24;;;;;;;2.20;0.70;;;;;;;18.95;51.86;101398.19;5035860;28;20033;-72
2021/04/06 10:34:58;;;;;;;0.88;0.60;;;;;;;19.00;51.95;101393.81;5038637;28;20475;-73
2021/04/06 10:37:24;;;;;;;1.95;1.10;;;;;;;18.94;51.71;101379.84;5049242;28;20032;-72
2021/04/06 10:39:50;;;;;;;2.00;0.90;;;;;;;18.94;52.01;101375.47;5068468;28;20028;-73
2021/04/06 10:42:17;;;;;;;1.95;0.80;;;;;;;18.97;51.88;101378.06;5040954;28;20059;-73
2021/04/06 10:44:45;;;;;;;0.75;0.50;;;;;;;18.96;51.81;101372.81;5018284;28;20464;-74
2021/04/06 10:47:22;;;;;;;1.00;0.55;;;;;;;18.92;51.91;101362.34;5057288;28;20120;-74
2021/04/06 10:49:58;;;;;;;0.75;0.60;;;;;;;18.98;51.64;101358.84;5046325;28;20040;-73
2021/04/06 10:52:33;;;;;;;3.05;1.23;;;;;;;19.02;51.57;101363.22;5036978;28;20033;-74
2021/04/06 10:55:00;;;;;;;0.77;0.70;;;;;;;19.03;51.50;101353.63;5050926;28;20028;-74
2021/04/06 10:57:35;;;;;;;2.15;0.70;;;;;;;19.04;51.43;101337.03;5049291;28;20057;-71
2021/04/06 11:00:21;;;;;;;1.13;0.65;;;;;;;19.01;51.38;101337.00;5045496;28;20029;-74
2021/04/06 11:02:47;;;;;;;1.73;0.98;;;;;;;19.07;51.48;101335.28;5034753;28;20041;-74
2021/04/06 11:05:27;;;;;;;1.40;0.52;;;;;;;19.04;51.61;101335.28;5017566;28;20040;-75
2021/04/06 11:07:53;;;;;;;1.92;0.60;;;;;;;19.08;51.70;101328.31;5022813;28;20033;-73
2021/04/06 11:10:22;;;;;;;2.38;0.65;;;;;;;19.05;51.29;101329.16;4994790;28;20040;-74
2021/04/06 11:12:48;;;;;;;2.80;1.10;;;;;;;19.03;51.61;101319.53;5027512;28;20025;-74
2021/04/06 11:15:14;;;;;;;0.82;0.50;;;;;;;19.03;51.96;101316.94;5032576;28;20035;-74
2021/04/06 11:17:42;;;;;;;3.55;0.77;;;;;;;19.03;51.65;101320.44;4985706;28;20030;-73
2021/04/06 11:20:08;;;;;;;1.70;0.77;;;;;;;19.09;51.86;101314.28;5003223;28;20021;-73
2021/04/06 11:22:33;;;;;;;1.05;0.50;;;;;;;19.08;51.82;101312.56;5002795;28;20472;-73
2021/04/06 11:24:58;;;;;;;1.60;1.13;;;;;;;19.06;51.68;101306.44;5039835;28;20112;-76
2021/04/06 11:27:24;;;;;;;2.63;1.10;;;;;;;19.05;51.82;101309.94;5012405;28;20088;-75
2021/04/06 11:29:49;;;;;;;2.33;0.73;;;;;;;19.03;51.75;101311.69;4979514;28;20084;-72
2021/04/06 11:32:18;;;;;;;1.70;0.70;;;;;;;19.05;51.56;101302.94;5029751;28;20030;-75
2021/04/06 11:34:44;;;;;;;2.88;0.60;;;;;;;18.95;52.03;101298.59;5026968;28;20471;-74
2021/04/06 11:37:11;;;;;;;1.45;0.80;;;;;;;18.95;52.14;101301.22;5017761;28;20124;-74
2021/04/06 11:39:40;;;;;;;1.65;0.63;;;;;;;18.98;51.91;101300.31;5009576;28;20064;-73